Bulk Hong Kong — 3EEW4 — position and weather

sailwx.info

Track history (hours):
 
Tides and Currents Weather Stations Pressure Air Temp Water Temp Dewpoint Dewpoint Depression Visibility Wind Speed Wind Dir Waves Ship Positions

Bulk Hong Kong

Last reported at 2016-May-03 09:08 UTC. Time now 2016-May-03 20:13 UTC.
Position N 01°13' E 103°31'.

Length 289 m; draft 8.1 m.

Type: Cargo ship. MMSI: 371828000.

Date/timePositionNaut miles runAvg speedWind from/ knotsBaromVisibWave heightAir tempDewpointWater temp
2016-May-03 09:08N 01°13' E 103°31'814.2
2016-May-03 08:33N 01°11' E 103°39'1010.5
2016-May-03 07:33N 01°11' E 103°49'9 8.9
2016-May-03 06:34N 01°16' E 103°57'1 0.6
2016-May-03 04:10N 01°16' E 103°58'0 0.1
2016-May-03 01:31N 01°16' E 103°58'0 0.0
2016-May-03 00:22N 01°16' E 103°58'0 0.1
2016-May-02 23:25N 01°16' E 103°57'0 0.0
2016-May-02 22:25N 01°16' E 103°57'0 0.0
2016-May-02 21:25N 01°16' E 103°57'0 0.0
2016-May-02 19:25N 01°16' E 103°57'0 0.0
2016-May-02 18:34N 01°16' E 103°57'0 0.0
2016-May-02 17:31N 01°16' E 103°57'0 0.0
2016-May-02 16:31N 01°16' E 103°57'0 0.0
2016-May-02 15:28N 01°16' E 103°57'0 0.0
2016-May-02 14:31N 01°16' E 103°57'0 0.0
2016-May-02 13:31N 01°16' E 103°57'0 0.0
2016-May-02 12:31N 01°16' E 103°57'0 0.0
2016-May-02 11:31N 01°16' E 103°57'0 0.0
2016-May-02 10:31N 01°16' E 103°57'0 0.2
2016-May-02 09:32N 01°16' E 103°57'3 2.6
2016-May-02 08:33N 01°15' E 103°60'4 4.5
2016-May-02 07:33N 01°16' E 104°04'5 5.0
2016-May-02 06:33N 01°17' E 104°09'  
2016-Apr-25 07:28N 30°19' E 122°53'1513.5
2016-Apr-25 06:21N 30°23' E 122°36'1313.9
2016-Apr-25 05:26N 30°23' E 122°21'2311.0
2016-Apr-25 03:19N 30°24' E 121°54'  
Track history (hours):
 
Tides and Currents Weather Stations Pressure Air Temp Water Temp Dewpoint Dewpoint Depression Visibility Wind Speed Wind Dir Waves Ship Positions

Bulk Hong Kong

Last reported at 2016-May-03 09:08 UTC. Time now 2016-May-03 20:13 UTC.
Position N 01°13' E 103°31'.

Length 289 m; draft 8.1 m.

Type: Cargo ship. MMSI: 371828000.

Date/timePositionNaut miles runAvg speedWind from/ knotsBaromVisibWave heightAir tempDewpointWater temp
2016-May-03 09:08N 01°13' E 103°31'814.2
2016-May-03 08:33N 01°11' E 103°39'1010.5
2016-May-03 07:33N 01°11' E 103°49'9 8.9
2016-May-03 06:34N 01°16' E 103°57'1 0.6
2016-May-03 04:10N 01°16' E 103°58'0 0.1
2016-May-03 01:31N 01°16' E 103°58'0 0.0
2016-May-03 00:22N 01°16' E 103°58'0 0.1
2016-May-02 23:25N 01°16' E 103°57'0 0.0
2016-May-02 22:25N 01°16' E 103°57'0 0.0
2016-May-02 21:25N 01°16' E 103°57'0 0.0
2016-May-02 19:25N 01°16' E 103°57'0 0.0
2016-May-02 18:34N 01°16' E 103°57'0 0.0
2016-May-02 17:31N 01°16' E 103°57'0 0.0
2016-May-02 16:31N 01°16' E 103°57'0 0.0
2016-May-02 15:28N 01°16' E 103°57'0 0.0
2016-May-02 14:31N 01°16' E 103°57'0 0.0
2016-May-02 13:31N 01°16' E 103°57'0 0.0
2016-May-02 12:31N 01°16' E 103°57'0 0.0
2016-May-02 11:31N 01°16' E 103°57'0 0.0
2016-May-02 10:31N 01°16' E 103°57'0 0.2
2016-May-02 09:32N 01°16' E 103°57'3 2.6
2016-May-02 08:33N 01°15' E 103°60'4 4.5
2016-May-02 07:33N 01°16' E 104°04'5 5.0
2016-May-02 06:33N 01°17' E 104°09'  
2016-Apr-25 07:28N 30°19' E 122°53'1513.5
2016-Apr-25 06:21N 30°23' E 122°36'1313.9
2016-Apr-25 05:26N 30°23' E 122°21'2311.0
2016-Apr-25 03:19N 30°24' E 121°54'  

Dump ship's entire track history